Terminal Aerodrome Forecast
Issued by NWS

Current Version | Previous Version | Text Only | Print | Product List | Glossary On
Versions: 1 2 3 4 5 6 7 8 9 10 11 12 13 14 15 16 17 18 19 20 21 22 23 24 25 26 27
000
FTUS45 KGJT 232122 AAA
TAFASE
TAF AMD
KASE 232122Z 2321/2418 19007KT 4SM -SHSN OVC025 WS020/23045KT
      TEMPO 2321/2323 3SM -SN BR BKN020
     FM232300 21012G18KT 1 1/2SM -SHSN OVC025
     FM240100 26009KT 2SM -SHSN OVC020
     FM240700 22006KT 3SM -SN OVC025=

USA.gov is the U.S. government's official web portal to all federal, state and local government web resources and services.